Time;durP1;ratioP1;P1;durP2;ratioP2;P2;SDS_P1;SDS_P2;PMS_P1;PMS_P2;Temp;Humidity;BMP_temperature;BMP_pressure;BME280_temperature;BME280_humidity;BME280_pressure;Samples;Min_cycle;Max_cycle;Signal;HPM_P1;HPM_P2
2022/05/05 00:02:09;;;;;;;63.07;58.47;;;;;;;11.77;100.00;102159.08;1982520;71;39716;-76
2022/05/05 00:07:53;;;;;;;64.80;60.20;;;;;;;11.86;100.00;102158.91;1882518;74;86222;-76
2022/05/05 00:19:44;;;;;;;59.50;55.03;;;;;;;11.15;100.00;102169.69;1900276;73;86239;-76
2022/05/05 00:25:28;;;;;;;59.83;55.43;;;;;;;10.95;100.00;102166.08;1931677;73;85169;-77
2022/05/05 00:31:12;;;;;;;58.63;54.23;;;;;;;10.82;100.00;102174.23;1926548;71;39678;-77
2022/05/05 00:36:58;;;;;;;61.50;56.87;;;;;;;11.05;100.00;102172.31;1981091;70;85418;-76
2022/05/05 00:42:42;;;;;;;57.87;53.27;;;;;;;10.74;100.00;102176.02;1884377;73;85314;-77
2022/05/05 00:48:28;;;;;;;58.57;54.17;;;;;;;10.56;100.00;102181.02;1919487;74;86010;-76
2022/05/05 00:54:14;;;;;;;61.37;56.77;;;;;;;10.59;100.00;102183.28;1984050;71;39476;-76
2022/05/05 01:00:01;;;;;;;61.03;56.43;;;;;;;10.49;100.00;102181.17;1950370;72;85406;-76
2022/05/05 01:05:45;;;;;;;60.63;55.83;;;;;;;10.42;100.00;102183.28;1893256;74;86354;-82
2022/05/05 01:11:30;;;;;;;59.87;55.27;;;;;;;10.28;100.00;102188.31;1807000;77;86833;-76
2022/05/05 01:17:15;;;;;;;60.43;55.87;;;;;;;10.15;100.00;102191.41;1984195;71;39469;-76
2022/05/05 01:23:00;;;;;;;62.83;58.13;;;;;;;10.12;100.00;102186.33;1831690;76;85989;-76
2022/05/05 01:28:46;;;;;;;62.83;57.93;;;;;;;9.54;100.00;102090.32;1837041;73;85608;-76
2022/05/05 01:34:31;;;;;;;64.47;59.40;;;;;;;10.10;100.00;102179.36;1808624;77;86232;-76
2022/05/05 01:40:16;;;;;;;62.70;57.40;;;;;;;10.08;100.00;102177.36;1976497;70;39536;-76
2022/05/05 01:46:00;;;;;;;61.47;56.47;;;;;;;9.97;100.00;102193.81;1852134;76;86273;-77
2022/05/05 01:51:45;;;;;;;62.57;57.60;;;;;;;9.99;100.00;102187.48;1869333;74;86201;-80
2022/05/05 01:57:32;;;;;;;64.13;59.20;;;;;;;9.83;100.00;102181.89;1836579;76;86476;-80
2022/05/05 02:03:15;;;;;;;64.97;60.10;;;;;;;9.75;100.00;102180.91;1985668;71;39649;-77
2022/05/05 02:09:04;;;;;;;66.37;61.37;;;;;;;9.69;100.00;102192.98;1850636;76;85478;-76
2022/05/05 02:14:51;;;;;;;63.80;59.10;;;;;;;9.59;100.00;102194.45;1829563;76;86213;-76
2022/05/05 02:20:35;;;;;;;64.10;59.20;;;;;;;9.47;100.00;102199.20;1868300;74;86676;-76
2022/05/05 02:26:19;;;;;;;61.20;56.60;;;;;;;9.57;100.00;102195.80;1947490;71;39574;-76
2022/05/05 02:32:02;;;;;;;61.70;57.17;;;;;;;9.36;100.00;102205.63;1841717;75;86372;-76
2022/05/05 02:43:50;;;;;;;63.17;58.27;;;;;;;9.16;100.00;102217.63;1884145;73;86554;-77
2022/05/05 02:49:27;;;;;;;60.90;56.40;;;;;;;9.11;100.00;102218.92;1858372;76;86302;-76
2022/05/05 02:55:14;;;;;;;58.37;53.90;;;;;;;8.92;100.00;102209.03;1972673;71;39593;-77
2022/05/05 03:00:57;;;;;;;61.20;56.70;;;;;;;8.84;100.00;102219.09;1840769;76;85302;-76
2022/05/05 03:06:41;;;;;;;59.90;55.30;;;;;;;8.87;100.00;102224.99;1881101;76;86007;-81
2022/05/05 03:12:27;;;;;;;61.80;57.03;;;;;;;8.97;100.00;102213.31;1912473;74;86285;-81
2022/05/05 03:18:12;;;;;;;58.83;54.23;;;;;;;9.04;100.00;102222.34;1986098;71;39490;-77
2022/05/05 03:23:56;;;;;;;61.07;56.47;;;;;;;8.95;100.00;102216.86;1814557;76;86542;-77
2022/05/05 03:29:41;;;;;;;58.60;54.10;;;;;;;8.82;100.00;102220.70;1885722;74;86331;-77
2022/05/05 03:35:25;;;;;;;59.17;54.57;;;;;;;8.91;100.00;102224.81;1910580;74;85309;-81
2022/05/05 03:41:10;;;;;;;64.00;59.00;;;;;;;9.24;100.00;102224.75;1974789;71;39559;-77
2022/05/05 03:46:54;;;;;;;63.77;58.73;;;;;;;9.70;100.00;102219.11;1887092;74;85650;-80
2022/05/05 03:52:39;;;;;;;65.23;60.20;;;;;;;9.56;100.00;102227.39;1873028;75;86254;-75
2022/05/05 03:58:26;;;;;;;68.70;63.50;;;;;;;9.95;100.00;102227.09;1909068;72;86155;-76
2022/05/05 04:04:10;;;;;;;67.33;62.20;;;;;;;10.03;100.00;102228.92;1977947;71;39474;-76
2022/05/05 04:09:58;;;;;;;65.17;60.23;;;;;;;10.11;100.00;102230.45;1831636;76;86618;-77
2022/05/05 04:15:42;;;;;;;67.20;61.80;;;;;;;10.15;100.00;102227.50;1884476;74;86396;-76
2022/05/05 04:21:26;;;;;;;68.87;63.70;;;;;;;10.19;100.00;102239.80;1927854;73;86255;-76
2022/05/05 04:27:10;;;;;;;69.53;64.43;;;;;;;10.17;100.00;102238.38;1976621;70;39647;-82
2022/05/05 04:32:55;;;;;;;70.63;65.57;;;;;;;10.18;100.00;102242.30;1910698;74;85384;-76
2022/05/05 04:38:39;;;;;;;68.13;63.13;;;;;;;10.19;100.00;102245.89;1895838;73;86885;-76
2022/05/05 04:44:23;;;;;;;68.37;63.37;;;;;;;10.13;100.00;102254.66;1937373;73;86401;-76
2022/05/05 04:50:10;;;;;;;66.37;61.47;;;;;;;10.05;100.00;102253.67;1988075;71;39569;-76
2022/05/05 04:55:55;;;;;;;66.33;61.43;;;;;;;10.05;100.00;102260.05;1887518;74;85929;-80
2022/05/05 05:01:38;;;;;;;66.23;61.37;;;;;;;10.15;100.00;102264.99;1899688;73;86189;-76
2022/05/05 05:07:22;;;;;;;66.60;61.80;;;;;;;10.13;100.00;102267.16;1923887;72;86503;-75
2022/05/05 05:13:06;;;;;;;66.27;61.33;;;;;;;10.21;100.00;102264.02;1799098;78;86484;-75
2022/05/05 05:18:53;;;;;;;70.97;65.87;;;;;;;10.28;100.00;102268.02;1796057;78;85948;-76
2022/05/05 05:24:37;;;;;;;67.30;62.37;;;;;;;10.38;100.00;102280.72;1865561;76;86370;-76
2022/05/05 05:30:25;;;;;;;68.23;63.23;;;;;;;10.42;100.00;102286.07;1939467;73;86356;-76
2022/05/05 05:36:10;;;;;;;69.20;64.20;;;;;;;10.43;100.00;102299.72;1986968;71;39588;-76
2022/05/05 05:41:54;;;;;;;64.73;59.93;;;;;;;10.44;100.00;102294.44;1881375;75;86180;-76
2022/05/05 05:47:38;;;;;;;67.17;62.20;;;;;;;10.49;100.00;102305.65;1882173;75;86564;-80
2022/05/05 05:53:24;;;;;;;68.20;63.30;;;;;;;10.54;100.00;102307.68;1911268;72;86321;-76
2022/05/05 05:59:07;;;;;;;67.17;62.20;;;;;;;10.61;100.00;102314.48;1895222;74;86504;-76
2022/05/05 06:04:52;;;;;;;67.07;62.17;;;;;;;10.70;100.00;102319.37;1895065;74;86294;-82
2022/05/05 06:10:36;;;;;;;65.67;60.77;;;;;;;10.76;100.00;102323.09;1859908;76;86091;-77
2022/05/05 06:16:20;;;;;;;67.73;62.87;;;;;;;10.90;100.00;102323.08;1948179;73;85574;-77
2022/05/05 06:22:06;;;;;;;65.00;60.20;;;;;;;11.01;100.00;102321.30;1978103;71;86006;-80
2022/05/05 06:27:50;;;;;;;69.87;64.77;;;;;;;11.11;100.00;102325.64;1795692;78;85558;-76
2022/05/05 06:33:35;;;;;;;63.97;59.10;;;;;;;11.23;100.00;102336.13;1806146;77;86373;-76
2022/05/05 06:39:20;;;;;;;68.17;63.33;;;;;;;11.32;100.00;102331.29;1979738;71;39445;-76
2022/05/05 06:45:07;;;;;;;68.67;63.57;;;;;;;11.38;100.00;102341.95;1845905;76;86494;-77
2022/05/05 06:50:54;;;;;;;65.60;60.90;;;;;;;11.58;100.00;102346.98;1883525;74;85936;-73
2022/05/05 06:56:38;;;;;;;67.90;62.90;;;;;;;11.73;100.00;102343.89;1919406;74;86159;-79
2022/05/05 07:05:28;;;;;;;67.50;63.00;;;;;;;11.97;100.00;102343.67;1900619;75;86302;-79
2022/05/05 07:07:58;;;;;;;66.67;62.03;;;;;;;12.04;100.00;102352.67;1848796;75;938975;-76
2022/05/05 07:13:16;;;;;;;64.83;60.10;;;;;;;12.09;100.00;102360.55;1838275;75;940820;-75
2022/05/05 07:15:47;;;;;;;64.30;59.80;;;;;;;12.17;100.00;102362.03;1832089;76;939007;-80
2022/05/05 07:18:17;;;;;;;64.73;60.23;;;;;;;12.26;100.00;102366.05;1790808;77;940775;-78
2022/05/05 07:20:49;;;;;;;62.30;57.90;;;;;;;12.37;100.00;102362.27;1801276;77;939070;-80
2022/05/05 07:23:36;;;;;;;62.67;58.27;;;;;;;12.64;100.00;102359.52;1828199;76;941212;-75
2022/05/05 07:26:07;;;;;;;61.42;57.03;;;;;;;12.68;100.00;102366.26;1843671;76;940893;-82
2022/05/05 07:28:37;;;;;;;61.15;56.85;;;;;;;12.75;100.00;102374.70;1855648;76;940873;-77
2022/05/05 07:31:07;;;;;;;61.53;57.33;;;;;;;12.86;100.00;102372.03;1843745;76;940868;-77
2022/05/05 07:33:37;;;;;;;60.07;55.93;;;;;;;12.98;100.00;102369.91;1855869;76;940771;-74
2022/05/05 07:39:23;;;;;;;61.00;56.90;;;;;;;13.40;100.00;102370.02;1927211;73;86531;-74
2022/05/05 07:45:12;;;;;;;57.07;53.40;;;;;;;13.82;100.00;102369.48;1803645;78;86648;-78
2022/05/05 07:50:56;;;;;;;58.63;55.07;;;;;;;14.15;100.00;102364.09;1848326;76;86731;-76
2022/05/05 07:59:56;;;;;;;56.67;53.47;;;;;;;14.49;100.00;102368.73;1881004;75;86184;-76
2022/05/05 08:05:42;;;;;;;56.43;53.43;;;;;;;14.81;100.00;102365.17;1870407;74;86461;-77
2022/05/05 08:11:28;;;;;;;51.43;48.70;;;;;;;15.20;100.00;102366.05;1922512;74;86359;-76
2022/05/05 08:17:12;;;;;;;51.33;48.60;;;;;;;15.28;100.00;102358.48;1986664;71;40207;-80
2022/05/05 08:22:56;;;;;;;55.43;52.60;;;;;;;15.72;100.00;102369.41;1841272;76;86872;-76
2022/05/05 08:28:41;;;;;;;56.13;53.17;;;;;;;15.94;100.00;102376.94;1900009;73;86033;-75
2022/05/05 08:34:27;;;;;;;55.03;52.13;;;;;;;16.10;100.00;102375.48;1910697;72;86035;-75
2022/05/05 08:40:15;;;;;;;50.50;47.70;;;;;;;15.74;100.00;102385.40;1982806;71;40397;-75
2022/05/05 08:46:01;;;;;;;48.30;45.73;;;;;;;15.84;100.00;102384.52;1835618;76;86250;-76
2022/05/05 08:51:43;;;;;;;49.40;46.80;;;;;;;16.11;100.00;102386.98;1956380;73;85386;-75
2022/05/05 08:54:17;;;;;;;48.20;45.70;;;;;;;15.91;100.00;102387.33;1885642;74;939174;-75
2022/05/05 09:00:04;;;;;;;56.57;53.67;;;;;;;15.84;100.00;102381.16;1844599;76;86277;-76
2022/05/05 09:05:55;;;;;;;49.33;46.63;;;;;;;16.01;100.00;102384.19;1849746;76;86232;-79
2022/05/05 09:11:44;;;;;;;49.40;46.70;;;;;;;15.93;100.00;102396.27;1887033;75;85348;-76
2022/05/05 09:17:29;;;;;;;48.50;45.93;;;;;;;15.93;100.00;102393.47;1858931;75;86325;-82
2022/05/05 09:23:28;;;;;;;44.73;42.23;;;;;;;16.25;100.00;102391.70;1983451;71;39481;-76
2022/05/05 09:29:23;;;;;;;42.20;39.90;;;;;;;16.27;100.00;102397.01;1986265;71;39585;-76
2022/05/05 09:35:11;;;;;;;40.23;38.20;;;;;;;16.45;100.00;102397.78;1891916;74;86312;-75
2022/05/05 09:41:07;;;;;;;46.80;44.20;;;;;;;16.22;100.00;102402.63;1849697;76;86314;-77
2022/05/05 09:46:51;;;;;;;55.77;52.67;;;;;;;15.99;100.00;102404.12;1797347;78;86039;-74
2022/05/05 09:58:39;;;;;;;49.90;47.33;;;;;;;16.16;100.00;102410.23;1879587;75;86280;-78
2022/05/05 10:04:27;;;;;;;46.40;44.00;;;;;;;16.19;100.00;102398.44;1912608;74;86086;-76
2022/05/05 10:10:16;;;;;;;51.37;48.47;;;;;;;16.20;100.00;102399.29;1964653;71;39494;-80
2022/05/05 10:16:03;;;;;;;47.67;44.97;;;;;;;16.42;100.00;102397.53;1891262;74;86730;-79
2022/05/05 10:25:09;;;;;;;40.73;38.53;;;;;;;16.54;100.00;102396.06;1799711;78;85329;-76
2022/05/05 10:27:44;;;;;;;38.73;36.70;;;;;;;16.47;100.00;102407.33;1770839;79;938923;-76
2022/05/05 10:34:02;;;;;;;46.67;44.17;;;;;;;16.74;100.00;102400.19;1856956;75;86114;-75
2022/05/05 10:39:54;;;;;;;49.43;46.93;;;;;;;16.95;100.00;102400.91;1884920;74;86077;-74
2022/05/05 10:45:49;;;;;;;42.77;40.37;;;;;;;17.46;100.00;102392.09;1809212;78;86177;-75
2022/05/05 10:52:21;;;;;;;36.60;34.57;;;;;;;18.41;100.00;102392.24;1895119;73;86569;-81
2022/05/05 10:58:03;;;;;;;40.47;38.17;;;;;;;17.27;100.00;102397.61;1846802;76;86253;-74
2022/05/05 11:04:25;;;;;;;37.57;35.37;;;;;;;18.10;100.00;102399.64;1877566;74;86679;-75
2022/05/05 11:10:47;;;;;;;38.90;36.60;;;;;;;17.39;100.00;102401.44;1891075;74;84722;-76
2022/05/05 11:23:01;;;;;;;35.43;33.53;;;;;;;17.33;100.00;102413.27;1983600;70;86254;-76
2022/05/05 11:28:47;;;;;;;31.83;30.03;;;;;;;17.40;100.00;102414.36;1881428;74;86396;-80
2022/05/05 11:34:34;;;;;;;32.50;30.87;;;;;;;17.43;100.00;102417.41;1862662;75;86567;-80
2022/05/05 11:40:18;;;;;;;36.07;33.97;;;;;;;17.24;100.00;102415.05;1978328;70;39612;-80
2022/05/05 11:46:06;;;;;;;38.63;36.53;;;;;;;17.68;100.00;102398.95;1839168;76;86167;-80
2022/05/05 11:51:49;;;;;;;31.67;29.87;;;;;;;17.80;100.00;102395.73;1795660;78;86468;-80
2022/05/05 12:07:19;;;;;;;30.40;28.70;;;;;;;18.20;100.00;102391.09;1986563;71;39805;-74
2022/05/05 12:13:06;;;;;;;27.50;25.90;;;;;;;18.45;100.00;102389.09;1829208;76;86779;-81
2022/05/05 12:18:54;;;;;;;27.60;26.00;;;;;;;18.06;100.00;102397.16;1807526;78;86557;-75
2022/05/05 12:24:36;;;;;;;26.37;24.97;;;;;;;18.17;100.00;102395.92;1804166;77;86255;-79
2022/05/05 12:30:32;;;;;;;31.13;29.47;;;;;;;17.93;100.00;102400.67;1948158;72;86476;-76
2022/05/05 12:36:17;;;;;;;26.37;24.77;;;;;;;18.26;100.00;102389.63;1956810;71;39619;-76
2022/05/05 12:42:09;;;;;;;24.43;23.13;;;;;;;18.34;100.00;102386.16;1984322;71;39527;-78
2022/05/05 12:48:00;;;;;;;26.70;25.23;;;;;;;18.38;100.00;102385.25;1852170;76;85904;-78
2022/05/05 12:59:48;;;;;;;33.90;31.80;;;;;;;18.28;100.00;102388.18;1883715;73;86309;-81
2022/05/05 13:05:32;;;;;;;40.73;37.73;;;;;;;18.87;100.00;102386.89;1865244;76;86500;-80
2022/05/05 13:11:18;;;;;;;26.13;24.83;;;;;;;19.17;100.00;102372.91;1919428;71;39529;-80
2022/05/05 13:17:03;;;;;;;26.17;24.67;;;;;;;19.27;100.00;102391.88;1825975;76;85644;-79
2022/05/05 13:22:48;;;;;;;30.90;28.90;;;;;;;19.15;100.00;102394.33;1879428;74;86247;-76
2022/05/05 13:28:32;;;;;;;32.70;30.63;;;;;;;19.38;100.00;102396.78;1866329;76;86206;-80
2022/05/05 13:34:17;;;;;;;22.60;21.50;;;;;;;19.37;100.00;102400.17;1944252;71;39636;-80
2022/05/05 13:40:01;;;;;;;23.67;22.07;;;;;;;19.20;100.00;102397.64;1893703;74;85382;-76
2022/05/05 13:45:45;;;;;;;22.40;21.20;;;;;;;19.33;100.00;102392.64;1884077;74;86132;-83
2022/05/05 13:51:29;;;;;;;23.57;22.27;;;;;;;19.14;100.00;102401.66;1879187;75;86400;-75
2022/05/05 13:57:14;;;;;;;20.80;19.60;;;;;;;18.92;100.00;102374.11;1923107;72;40513;-75
2022/05/05 14:02:56;;;;;;;22.17;20.97;;;;;;;19.18;100.00;102398.50;1845651;75;86537;-76
2022/05/05 14:14:45;;;;;;;21.03;19.90;;;;;;;18.73;100.00;102397.22;1883364;74;86415;-78
2022/05/05 14:20:30;;;;;;;20.10;18.80;;;;;;;19.07;100.00;102393.05;1801430;77;86419;-78
2022/05/05 14:26:15;;;;;;;19.00;17.80;;;;;;;19.20;100.00;102384.39;1983395;71;39760;-76
2022/05/05 14:31:59;;;;;;;19.17;17.87;;;;;;;19.01;100.00;102387.78;1815049;76;85254;-76
2022/05/05 14:37:45;;;;;;;18.30;17.30;;;;;;;19.17;100.00;102392.02;1870804;75;85457;-76
2022/05/05 14:43:30;;;;;;;19.90;18.57;;;;;;;19.17;100.00;102387.80;1863624;75;86182;-78
2022/05/05 14:49:14;;;;;;;17.83;16.93;;;;;;;19.17;100.00;102385.58;1982691;71;39439;-80
2022/05/05 14:54:59;;;;;;;18.47;17.40;;;;;;;19.43;100.00;102384.02;1844653;75;85479;-73
2022/05/05 15:00:42;;;;;;;17.03;15.83;;;;;;;19.49;100.00;102385.63;1894373;73;86087;-76
2022/05/05 15:06:27;;;;;;;17.40;16.50;;;;;;;19.58;100.00;102388.01;1943092;73;85311;-79
2022/05/05 15:12:13;;;;;;;17.07;16.07;;;;;;;19.62;100.00;102394.70;1944833;71;39516;-75
2022/05/05 15:17:57;;;;;;;17.00;16.00;;;;;;;19.75;100.00;102391.08;1838240;76;86033;-77
2022/05/05 15:23:41;;;;;;;16.70;15.80;;;;;;;19.77;100.00;102395.82;1894365;73;86414;-76
2022/05/05 15:29:29;;;;;;;16.60;15.37;;;;;;;19.73;100.00;102396.75;1907932;72;86522;-74
2022/05/05 15:35:13;;;;;;;15.57;14.50;;;;;;;19.69;100.00;102403.58;1984552;71;39688;-79
2022/05/05 15:40:58;;;;;;;16.23;15.33;;;;;;;19.62;100.00;102403.16;1844263;76;86034;-78
2022/05/05 15:46:44;;;;;;;15.13;14.13;;;;;;;19.82;100.00;102399.96;1880049;73;85277;-76
2022/05/05 15:52:28;;;;;;;15.43;14.23;;;;;;;19.85;100.00;102404.16;1910217;73;86159;-76
2022/05/05 15:58:11;;;;;;;16.10;15.20;;;;;;;19.64;100.00;102403.67;1916189;72;39565;-78
2022/05/05 16:03:59;;;;;;;16.23;15.10;;;;;;;19.65;100.00;102403.09;1879210;75;86253;-77
2022/05/05 16:09:47;;;;;;;14.80;14.10;;;;;;;19.83;100.00;102407.85;1898036;74;86300;-76
2022/05/05 16:15:33;;;;;;;15.13;14.43;;;;;;;19.80;100.00;102408.48;1869171;75;86228;-76
2022/05/05 16:21:18;;;;;;;16.07;15.07;;;;;;;19.75;100.00;102408.00;1978954;71;39541;-75
2022/05/05 16:33:03;;;;;;;14.90;13.70;;;;;;;19.86;100.00;102417.09;1838191;76;85422;-76
2022/05/05 16:38:46;;;;;;;14.63;13.63;;;;;;;19.74;100.00;102407.73;1885719;73;86334;-77
2022/05/05 16:44:31;;;;;;;13.33;12.63;;;;;;;19.89;100.00;102413.11;1863630;75;86340;-77
2022/05/05 16:50:17;;;;;;;13.83;13.07;;;;;;;19.97;100.00;102404.50;1978683;71;39516;-77
2022/05/05 16:56:02;;;;;;;13.47;12.77;;;;;;;19.94;100.00;102416.37;1906240;74;86165;-75
2022/05/05 17:01:47;;;;;;;12.83;12.20;;;;;;;19.79;100.00;102423.72;1886967;74;86075;-78
2022/05/05 17:07:35;;;;;;;13.30;12.60;;;;;;;19.67;100.00;102423.37;1809645;77;85341;-75
2022/05/05 17:13:23;;;;;;;15.17;14.37;;;;;;;19.52;100.00;102424.46;1946793;71;40346;-76
2022/05/05 17:19:09;;;;;;;14.10;13.30;;;;;;;19.38;100.00;102414.50;1882948;75;86463;-77
2022/05/05 17:24:52;;;;;;;14.40;13.70;;;;;;;19.39;100.00;102412.52;1884063;74;86362;-74
2022/05/05 17:30:38;;;;;;;15.87;15.00;;;;;;;19.03;100.00;102416.49;1806335;77;85974;-79
2022/05/05 17:36:22;;;;;;;15.00;14.20;;;;;;;19.00;100.00;102416.51;1915119;74;86806;-74
2022/05/05 17:42:10;;;;;;;15.30;14.37;;;;;;;19.09;100.00;102418.91;1986045;71;40400;-78
2022/05/05 17:54:08;;;;;;;14.60;13.60;;;;;;;19.09;100.00;102420.32;1919129;74;85307;-76
2022/05/05 17:59:51;;;;;;;14.47;13.50;;;;;;;19.16;100.00;102421.37;1807647;78;86186;-80
2022/05/05 18:05:35;;;;;;;14.73;14.03;;;;;;;18.95;100.00;102425.63;1859777;76;86011;-77
2022/05/05 18:11:23;;;;;;;16.62;15.68;;;;;;;18.78;100.00;102427.55;1934854;73;85983;-77
2022/05/05 18:17:00;;;;;;;16.57;15.57;;;;;;;18.44;100.00;102428.25;1902411;74;39679;-76
2022/05/05 18:22:45;;;;;;;17.23;16.40;;;;;;;18.17;100.00;102436.70;1888788;73;86499;-77
2022/05/05 18:28:30;;;;;;;16.70;15.80;;;;;;;17.98;100.00;102439.98;1809959;77;86250;-78
2022/05/05 18:34:17;;;;;;;21.73;20.47;;;;;;;17.79;100.00;102444.69;1977648;70;39593;-78
2022/05/05 18:40:09;;;;;;;21.27;20.17;;;;;;;17.58;100.00;102444.59;1883038;75;86223;-76
2022/05/05 18:45:52;;;;;;;22.70;21.40;;;;;;;17.58;100.00;102441.78;1878911;74;86164;-75
2022/05/05 18:51:37;;;;;;;31.40;29.70;;;;;;;17.50;100.00;102446.59;1800959;77;86039;-79
2022/05/05 18:57:21;;;;;;;36.60;34.57;;;;;;;17.01;100.00;102457.31;1882286;74;86341;-77
2022/05/05 19:03:05;;;;;;;37.50;35.50;;;;;;;17.37;100.00;102451.47;1849326;76;85765;-75
2022/05/05 19:08:49;;;;;;;41.77;39.47;;;;;;;17.28;100.00;102456.87;1806749;78;86085;-81
2022/05/05 19:18:03;;;;;;;51.07;48.23;;;;;;;17.13;100.00;102466.22;1983108;69;39478;-79
2022/05/05 19:20:36;;;;;;;52.60;49.70;;;;;;;16.87;100.00;102471.70;1922521;73;938534;-76
2022/05/05 19:23:07;;;;;;;51.30;48.60;;;;;;;16.64;100.00;102470.41;1871320;74;940872;-74
2022/05/05 19:25:38;;;;;;;52.13;49.30;;;;;;;16.73;100.00;102469.23;1926401;73;940742;-76
2022/05/05 19:28:10;;;;;;;57.03;53.83;;;;;;;16.63;100.00;102475.75;1835281;75;940726;-74
2022/05/05 19:30:41;;;;;;;56.25;53.05;;;;;;;16.46;100.00;102468.76;1926546;72;940882;-79
2022/05/05 19:33:13;;;;;;;57.15;53.85;;;;;;;16.34;100.00;102469.89;1846124;75;940717;-76
2022/05/05 19:35:43;;;;;;;59.63;56.23;;;;;;;16.31;100.00;102477.48;1887175;74;938948;-75
2022/05/05 19:38:14;;;;;;;61.80;58.38;;;;;;;16.33;100.00;102477.20;1874500;74;940760;-75
2022/05/05 19:40:44;;;;;;;63.80;60.00;;;;;;;16.29;100.00;102483.11;1842722;76;938876;-78
2022/05/05 19:53:50;;;;;;;63.70;59.83;;;;;;;16.17;100.00;102497.41;1762446;77;940784;-77
2022/05/05 20:03:16;;;;;;;64.73;60.93;;;;;;;15.96;100.00;102509.77;1980721;71;39516;-74
2022/05/05 20:09:04;;;;;;;63.53;59.73;;;;;;;15.71;100.00;102515.38;1839972;76;86224;-74
2022/05/05 20:14:50;;;;;;;63.27;59.37;;;;;;;15.63;100.00;102525.73;1882030;73;86522;-78
2022/05/05 20:20:38;;;;;;;64.03;60.13;;;;;;;15.57;100.00;102531.92;1806264;77;86249;-77
2022/05/05 20:26:22;;;;;;;64.70;60.60;;;;;;;15.32;100.00;102542.45;1911899;73;86172;-78
2022/05/05 20:28:53;;;;;;;66.80;62.60;;;;;;;15.32;100.00;102542.45;1869265;74;937024;-77
2022/05/05 20:34:41;;;;;;;62.70;58.57;;;;;;;15.27;100.00;102534.62;1806834;77;86069;-80
2022/05/05 20:40:25;;;;;;;67.57;62.97;;;;;;;15.03;100.00;102538.44;1939292;73;86000;-79
2022/05/05 20:46:11;;;;;;;67.23;62.97;;;;;;;15.03;100.00;102529.49;1983308;71;39574;-83
2022/05/05 20:51:59;;;;;;;68.83;64.53;;;;;;;14.94;100.00;102545.13;1844870;76;85559;-77
2022/05/05 20:57:48;;;;;;;63.80;59.67;;;;;;;14.88;100.00;102549.59;1903818;74;86175;-79
2022/05/05 21:03:32;;;;;;;66.90;62.27;;;;;;;14.82;100.00;102552.91;1810487;77;86440;-75
2022/05/05 21:09:17;;;;;;;67.33;62.73;;;;;;;14.72;100.00;102554.24;1984403;71;39607;-81
2022/05/05 21:15:01;;;;;;;66.27;61.73;;;;;;;14.54;100.00;102564.52;1971834;72;86353;-74
2022/05/05 21:26:48;;;;;;;66.27;61.77;;;;;;;14.28;100.00;102559.27;1891795;74;86346;-74
2022/05/05 21:32:34;;;;;;;66.53;61.70;;;;;;;14.17;100.00;102570.06;1874704;75;86118;-81
2022/05/05 21:38:20;;;;;;;67.67;62.73;;;;;;;14.02;100.00;102569.41;1940797;71;39712;-74
2022/05/05 21:44:04;;;;;;;68.83;64.23;;;;;;;14.06;100.00;102562.73;1828980;76;86104;-76
2022/05/05 21:49:52;;;;;;;67.23;62.60;;;;;;;13.93;100.00;102564.56;1801368;78;86298;-78
2022/05/05 21:55:37;;;;;;;71.83;66.83;;;;;;;13.77;100.00;102560.80;1858271;76;86178;-75
2022/05/05 22:01:20;;;;;;;68.50;63.90;;;;;;;13.64;100.00;102564.88;1941553;71;40503;-75
2022/05/05 22:07:05;;;;;;;67.37;62.77;;;;;;;13.59;100.00;102570.95;1828579;76;86308;-89
2022/05/05 22:12:49;;;;;;;66.63;62.27;;;;;;;13.61;100.00;102573.75;1810229;78;85376;-78
2022/05/05 22:18:35;;;;;;;68.23;63.63;;;;;;;13.61;100.00;102586.87;1806739;77;86835;-79
2022/05/05 22:24:19;;;;;;;67.43;62.77;;;;;;;13.45;100.00;102592.85;1980329;71;39623;-79
2022/05/05 22:30:04;;;;;;;64.53;59.73;;;;;;;13.56;100.00;102595.22;1853132;76;85748;-76
2022/05/05 22:35:50;;;;;;;62.93;58.20;;;;;;;13.44;100.00;102591.16;1795944;78;86225;-84
2022/05/05 22:41:52;;;;;;;65.40;60.80;;;;;;;13.32;100.00;102589.62;1808232;77;86075;-78
2022/05/05 22:47:39;;;;;;;62.80;58.17;;;;;;;12.95;100.00;102593.05;1832126;77;85675;-76
2022/05/05 22:53:25;;;;;;;58.93;54.63;;;;;;;12.63;100.00;102590.62;1913187;74;86397;-78
2022/05/05 22:59:08;;;;;;;62.17;57.47;;;;;;;12.74;100.00;102586.91;1806500;70;39525;-78
2022/05/05 23:04:53;;;;;;;62.20;57.57;;;;;;;12.83;100.00;102580.33;1889323;74;86270;-74
2022/05/05 23:10:38;;;;;;;62.77;58.50;;;;;;;12.79;100.00;102583.61;1832933;77;86461;-85
2022/05/05 23:16:22;;;;;;;62.20;58.13;;;;;;;12.44;100.00;102577.55;1922259;73;85450;-75
2022/05/05 23:22:08;;;;;;;65.63;61.03;;;;;;;12.22;100.00;102582.20;1988627;71;40540;-75
2022/05/05 23:24:56;;;;;;;63.60;59.30;;;;;;;12.37;100.00;102585.22;1913421;73;938944;-75
2022/05/05 23:30:42;;;;;;;62.77;58.30;;;;;;;12.43;100.00;102577.79;1888225;75;86221;-78
2022/05/05 23:42:28;;;;;;;62.83;58.50;;;;;;;12.01;100.00;102585.75;1928281;73;86132;-74
2022/05/05 23:48:12;;;;;;;62.20;57.87;;;;;;;11.77;100.00;102582.26;1983424;71;39633;-75
2022/05/05 23:53:56;;;;;;;60.43;56.03;;;;;;;11.75;100.00;102580.28;1841160;76;86253;-76
2022/05/05 23:59:39;;;;;;;60.57;56.27;;;;;;;11.82;100.00;102583.75;1883608;73;86253;-77
